Terminal Aerodrome Forecast
Issued by NWS

Home | Current Version | Previous Version | Graphics & Text | Print | Product List | Glossary On
Versions: 1 2 3 4 5 6 7 8 9 10 11 12 13 14 15 16 17 18 19 20 21 22 23 24 25 26 27 28 29 30
137
FTUS43 KLOT 152330
TAFDPA
TAF
KDPA 152330Z 1600/1624 16004KT P6SM OVC120
     FM161000 12004KT P6SM VCSH SCT015 OVC025
      TEMPO 1611/1612 5SM -FZRAPL OVC015
     FM161200 11004KT 3SM -FZRA BR OVC008
     FM161600 11007KT 3SM -RA BR OVC005
     FM161900 09008KT 2SM -SHRA BR OVC004
     FM162200 09010KT 1 1/2SM -RA BR OVC003=

USA.gov is the U.S. government's official web portal to all federal, state and local government web resources and services.